Time;durP1;ratioP1;P1;durP2;ratioP2;P2;SDS_P1;SDS_P2;PMS_P1;PMS_P2;Temp;Humidity;BMP_temperature;BMP_pressure;BME280_temperature;BME280_humidity;BME280_pressure;Samples;Min_cycle;Max_cycle;Signal;HPM_P1;HPM_P2
2023/07/02 00:01:39;;;;;;;;;38.50;33.00;;;;;;;;5068262;28;8872;-58
2023/07/02 00:04:04;;;;;;;;;40.75;34.00;;;;;;;;5069251;28;8845;-57
2023/07/02 00:06:32;;;;;;;;;35.50;32.25;;;;;;;;5067041;28;8943;-57
2023/07/02 00:08:57;;;;;;;;;38.25;34.25;;;;;;;;5067163;28;8820;-59
2023/07/02 00:11:22;;;;;;;;;38.00;33.50;;;;;;;;5066332;28;10481;-59
2023/07/02 00:13:48;;;;;;;;;37.00;32.25;;;;;;;;5067708;28;8833;-58
2023/07/02 00:16:13;;;;;;;;;36.00;33.75;;;;;;;;5066378;28;8863;-58
2023/07/02 00:18:38;;;;;;;;;37.00;32.75;;;;;;;;5065294;28;8845;-58
2023/07/02 00:21:05;;;;;;;;;44.00;36.25;;;;;;;;5069289;28;8834;-58
2023/07/02 00:23:30;;;;;;;;;49.00;37.75;;;;;;;;5058425;28;8800;-58
2023/07/02 00:25:58;;;;;;;;;35.50;32.25;;;;;;;;5057501;28;10490;-59
2023/07/02 00:28:24;;;;;;;;;39.00;34.00;;;;;;;;5057104;28;8782;-58
2023/07/02 00:30:49;;;;;;;;;36.50;32.00;;;;;;;;5057604;28;10248;-58
2023/07/02 00:33:15;;;;;;;;;36.25;33.00;;;;;;;;5054954;28;8792;-59
2023/07/02 00:35:43;;;;;;;;;45.00;35.00;;;;;;;;5055818;28;8806;-59
2023/07/02 00:38:08;;;;;;;;;39.25;33.50;;;;;;;;5054726;28;10470;-59
2023/07/02 00:40:34;;;;;;;;;34.00;30.75;;;;;;;;5055144;28;10439;-59
2023/07/02 00:42:59;;;;;;;;;34.50;31.50;;;;;;;;5051155;28;8829;-59
2023/07/02 00:45:27;;;;;;;;;40.75;34.00;;;;;;;;5054274;28;8845;-59
2023/07/02 00:47:54;;;;;;;;;35.00;32.25;;;;;;;;5056632;28;9571;-59
2023/07/02 00:50:20;;;;;;;;;39.25;33.25;;;;;;;;5055061;28;12472;-57
2023/07/02 00:52:45;;;;;;;;;38.75;34.75;;;;;;;;5059980;28;10422;-57
2023/07/02 00:55:10;;;;;;;;;42.75;35.50;;;;;;;;5060431;28;11655;-57
2023/07/02 00:57:35;;;;;;;;;43.25;34.75;;;;;;;;5057245;28;8878;-58
2023/07/02 01:00:01;;;;;;;;;44.25;36.50;;;;;;;;5058492;28;10975;-58
2023/07/02 01:02:29;;;;;;;;;32.50;30.25;;;;;;;;5061131;28;8841;-58
2023/07/02 01:04:57;;;;;;;;;34.50;28.50;;;;;;;;5057463;28;8834;-58
2023/07/02 01:07:22;;;;;;;;;41.00;35.00;;;;;;;;5062051;28;10630;-59
2023/07/02 01:09:48;;;;;;;;;35.50;32.25;;;;;;;;5057592;28;10698;-58
2023/07/02 01:12:15;;;;;;;;;37.00;33.00;;;;;;;;5055461;28;8805;-58
2023/07/02 01:14:43;;;;;;;;;40.25;34.25;;;;;;;;5054405;28;8809;-58
2023/07/02 01:17:09;;;;;;;;;41.00;33.75;;;;;;;;5053936;28;10417;-59
2023/07/02 01:19:51;;;;;;;;;36.00;31.25;;;;;;;;5061178;28;10461;-59
2023/07/02 01:22:17;;;;;;;;;37.75;33.25;;;;;;;;5059574;28;8817;-58
2023/07/02 01:24:42;;;;;;;;;33.50;30.00;;;;;;;;5070307;28;10465;-58
2023/07/02 01:27:10;;;;;;;;;39.75;34.50;;;;;;;;5061783;28;10328;-59
2023/07/02 01:29:36;;;;;;;;;45.50;37.00;;;;;;;;5054646;28;8829;-59
2023/07/02 01:32:02;;;;;;;;;37.25;33.75;;;;;;;;5061518;28;10492;-58
2023/07/02 01:34:27;;;;;;;;;39.25;32.50;;;;;;;;5065655;28;10491;-58
2023/07/02 01:36:52;;;;;;;;;39.50;31.50;;;;;;;;5058801;28;8824;-58
2023/07/02 01:39:17;;;;;;;;;37.75;32.75;;;;;;;;5056924;28;9595;-58
2023/07/02 01:41:44;;;;;;;;;36.50;33.75;;;;;;;;5060841;28;8846;-58
2023/07/02 01:44:10;;;;;;;;;36.00;32.00;;;;;;;;5058616;28;8783;-59
2023/07/02 01:46:35;;;;;;;;;34.00;29.75;;;;;;;;5067711;28;10622;-60
2023/07/02 01:49:01;;;;;;;;;35.25;30.50;;;;;;;;5064672;28;8883;-58
2023/07/02 01:51:26;;;;;;;;;40.00;31.50;;;;;;;;5062306;28;8964;-58
2023/07/02 01:53:51;;;;;;;;;37.00;32.50;;;;;;;;5068072;28;8852;-58
2023/07/02 01:56:16;;;;;;;;;35.25;31.25;;;;;;;;5059246;28;8808;-58
2023/07/02 01:58:41;;;;;;;;;36.75;32.50;;;;;;;;5065557;28;8818;-58
2023/07/02 02:01:07;;;;;;;;;34.50;31.50;;;;;;;;5063647;28;8807;-58
2023/07/02 02:03:32;;;;;;;;;41.00;32.25;;;;;;;;5060092;28;8800;-57
2023/07/02 02:05:57;;;;;;;;;37.25;32.50;;;;;;;;5068810;28;8810;-58
2023/07/02 02:08:22;;;;;;;;;37.50;32.75;;;;;;;;5063626;28;8817;-58
2023/07/02 02:10:48;;;;;;;;;29.75;29.25;;;;;;;;5054626;28;8798;-57
2023/07/02 02:13:13;;;;;;;;;37.00;30.00;;;;;;;;5063917;28;8888;-58
2023/07/02 02:15:38;;;;;;;;;34.25;31.00;;;;;;;;5066944;28;9568;-58
2023/07/02 02:18:03;;;;;;;;;34.25;30.50;;;;;;;;5062041;28;8798;-59
2023/07/02 02:20:28;;;;;;;;;32.25;30.00;;;;;;;;5057152;28;8836;-59
2023/07/02 02:22:54;;;;;;;;;42.75;34.00;;;;;;;;5064715;28;8848;-58
2023/07/02 02:25:19;;;;;;;;;35.75;32.00;;;;;;;;5062817;28;8845;-59
2023/07/02 02:27:44;;;;;;;;;34.75;30.00;;;;;;;;5061625;28;8927;-58
2023/07/02 02:30:09;;;;;;;;;30.75;28.75;;;;;;;;5068257;28;8846;-59
2023/07/02 02:32:35;;;;;;;;;33.75;29.50;;;;;;;;5065047;28;8868;-59
2023/07/02 02:35:00;;;;;;;;;30.50;29.50;;;;;;;;5057037;28;8832;-59
2023/07/02 02:37:25;;;;;;;;;36.50;30.00;;;;;;;;5060087;28;8832;-59
2023/07/02 02:39:50;;;;;;;;;36.00;31.00;;;;;;;;5063682;28;8853;-59
2023/07/02 02:42:16;;;;;;;;;33.75;28.50;;;;;;;;5065415;28;8794;-59
2023/07/02 02:44:41;;;;;;;;;31.25;27.75;;;;;;;;5061732;28;8798;-58
2023/07/02 02:47:06;;;;;;;;;34.25;29.75;;;;;;;;5058080;28;8786;-59
2023/07/02 02:49:31;;;;;;;;;33.00;30.50;;;;;;;;5061938;28;8816;-58
2023/07/02 02:51:56;;;;;;;;;34.75;30.00;;;;;;;;5065598;28;8934;-58
2023/07/02 02:54:22;;;;;;;;;33.00;29.75;;;;;;;;5063986;28;8825;-58
2023/07/02 02:56:47;;;;;;;;;30.50;28.00;;;;;;;;5059328;28;8802;-58
2023/07/02 02:59:12;;;;;;;;;32.75;30.25;;;;;;;;5054982;28;8879;-58
2023/07/02 03:01:37;;;;;;;;;30.75;27.75;;;;;;;;5053610;28;8903;-58
2023/07/02 03:04:02;;;;;;;;;40.00;32.75;;;;;;;;5066289;28;8806;-58
2023/07/02 03:06:28;;;;;;;;;28.00;27.75;;;;;;;;5063142;28;8841;-58
2023/07/02 03:08:53;;;;;;;;;29.50;27.00;;;;;;;;5055485;28;8848;-57
2023/07/02 03:11:18;;;;;;;;;31.00;29.50;;;;;;;;5062773;28;8896;-58
2023/07/02 03:13:44;;;;;;;;;32.75;28.00;;;;;;;;5052980;28;8834;-59
2023/07/02 03:16:10;;;;;;;;;28.75;27.50;;;;;;;;5065509;28;11119;-59
2023/07/02 03:18:35;;;;;;;;;31.25;29.25;;;;;;;;5064815;28;8880;-59
2023/07/02 03:21:00;;;;;;;;;34.75;30.25;;;;;;;;5062912;28;8831;-59
2023/07/02 03:23:25;;;;;;;;;33.00;30.00;;;;;;;;5059781;28;8905;-60
2023/07/02 03:25:50;;;;;;;;;34.50;30.00;;;;;;;;5065660;28;8836;-58
2023/07/02 03:28:16;;;;;;;;;33.50;28.25;;;;;;;;5065704;28;8802;-59
2023/07/02 03:30:41;;;;;;;;;34.75;30.75;;;;;;;;5068614;28;8910;-59
2023/07/02 03:33:08;;;;;;;;;32.25;28.50;;;;;;;;5063515;28;8849;-57
2023/07/02 03:35:33;;;;;;;;;36.00;30.00;;;;;;;;5053003;28;8867;-58
2023/07/02 03:37:58;;;;;;;;;29.25;26.50;;;;;;;;5061315;28;10320;-58
2023/07/02 03:40:23;;;;;;;;;30.00;27.75;;;;;;;;5062439;28;8833;-57
2023/07/02 03:42:48;;;;;;;;;28.25;25.25;;;;;;;;5062950;28;8837;-58
2023/07/02 03:45:14;;;;;;;;;25.75;24.00;;;;;;;;5056536;28;8825;-59
2023/07/02 03:47:39;;;;;;;;;31.00;27.75;;;;;;;;5061864;28;8806;-59
2023/07/02 03:50:04;;;;;;;;;29.25;26.00;;;;;;;;5065166;28;8810;-59
2023/07/02 03:52:29;;;;;;;;;27.75;24.00;;;;;;;;5063038;28;8830;-58
2023/07/02 03:54:55;;;;;;;;;26.25;23.75;;;;;;;;5061033;28;9630;-57
2023/07/02 03:57:20;;;;;;;;;26.00;24.00;;;;;;;;5061364;28;8802;-57
2023/07/02 03:59:45;;;;;;;;;27.50;25.75;;;;;;;;5059662;28;8980;-59
2023/07/02 04:02:11;;;;;;;;;34.00;31.00;;;;;;;;5066352;28;8794;-58
2023/07/02 04:04:36;;;;;;;;;28.00;27.25;;;;;;;;5060237;28;8841;-59
2023/07/02 04:07:01;;;;;;;;;29.00;28.75;;;;;;;;5051615;28;8862;-60
2023/07/02 04:09:26;;;;;;;;;29.00;27.75;;;;;;;;5067546;28;8826;-58
2023/07/02 04:11:51;;;;;;;;;29.00;26.75;;;;;;;;5060424;28;9056;-57
2023/07/02 04:14:17;;;;;;;;;26.00;25.25;;;;;;;;5064406;28;9584;-58
2023/07/02 04:16:45;;;;;;;;;28.50;26.75;;;;;;;;5065904;28;8817;-58
2023/07/02 04:19:10;;;;;;;;;35.25;30.50;;;;;;;;5066938;28;9691;-58
2023/07/02 04:21:35;;;;;;;;;28.75;25.50;;;;;;;;5061792;28;10189;-59
2023/07/02 04:24:00;;;;;;;;;14.25;13.00;;;;;;;;5066632;28;8872;-59
2023/07/02 04:26:26;;;;;;;;;28.75;26.50;;;;;;;;5059331;28;8814;-59
2023/07/02 04:28:51;;;;;;;;;25.25;24.25;;;;;;;;5066787;28;8798;-59
2023/07/02 04:31:17;;;;;;;;;31.75;27.75;;;;;;;;5060889;28;8880;-58
2023/07/02 04:33:42;;;;;;;;;29.50;27.50;;;;;;;;5067389;28;8972;-58
2023/07/02 04:36:08;;;;;;;;;31.00;27.50;;;;;;;;5057997;28;9594;-58
2023/07/02 04:38:33;;;;;;;;;22.25;20.50;;;;;;;;5063892;28;8892;-58
2023/07/02 04:41:05;;;;;;;;;30.50;25.50;;;;;;;;5064969;28;8846;-59
2023/07/02 04:43:31;;;;;;;;;27.25;26.50;;;;;;;;5064964;28;8809;-58
2023/07/02 04:45:56;;;;;;;;;28.25;26.50;;;;;;;;5051489;28;10111;-58
2023/07/02 04:48:21;;;;;;;;;26.75;24.00;;;;;;;;5065664;28;10004;-58
2023/07/02 04:50:46;;;;;;;;;32.75;29.50;;;;;;;;5069846;28;8897;-58
2023/07/02 04:53:12;;;;;;;;;31.75;26.25;;;;;;;;5065659;28;8907;-58
2023/07/02 04:55:37;;;;;;;;;30.25;27.00;;;;;;;;5064426;28;9552;-58
2023/07/02 04:58:02;;;;;;;;;26.25;25.25;;;;;;;;5060340;28;8810;-58
2023/07/02 05:00:27;;;;;;;;;28.75;26.25;;;;;;;;5063371;28;8854;-59
2023/07/02 05:02:52;;;;;;;;;25.00;23.25;;;;;;;;5054617;28;8836;-59
2023/07/02 05:05:18;;;;;;;;;28.50;25.75;;;;;;;;5065722;28;8832;-64
2023/07/02 05:07:43;;;;;;;;;28.00;22.00;;;;;;;;5060582;28;8808;-59
2023/07/02 05:10:08;;;;;;;;;29.50;26.50;;;;;;;;5061169;28;8817;-58
2023/07/02 05:12:33;;;;;;;;;29.50;27.25;;;;;;;;5066755;28;8844;-58
2023/07/02 05:14:59;;;;;;;;;27.75;24.50;;;;;;;;5057503;28;8804;-58
2023/07/02 05:17:24;;;;;;;;;32.50;29.00;;;;;;;;5058241;28;8816;-58
2023/07/02 05:19:49;;;;;;;;;27.75;26.25;;;;;;;;5063460;28;9588;-58
2023/07/02 05:22:14;;;;;;;;;26.75;24.00;;;;;;;;5064554;28;8789;-58
2023/07/02 05:24:40;;;;;;;;;27.00;23.75;;;;;;;;5062320;28;8793;-58
2023/07/02 05:27:06;;;;;;;;;23.25;22.00;;;;;;;;5063562;28;8786;-59
2023/07/02 05:29:31;;;;;;;;;24.25;21.25;;;;;;;;5069928;28;8916;-58
2023/07/02 05:31:56;;;;;;;;;28.50;23.00;;;;;;;;5066156;28;8935;-58
2023/07/02 05:34:21;;;;;;;;;19.25;16.50;;;;;;;;5067664;28;8814;-58
2023/07/02 05:36:47;;;;;;;;;21.75;20.75;;;;;;;;5064607;28;8813;-58
2023/07/02 05:39:12;;;;;;;;;23.00;22.25;;;;;;;;5060279;28;8825;-58
2023/07/02 05:41:37;;;;;;;;;25.00;21.50;;;;;;;;5061076;28;9610;-57
2023/07/02 05:44:03;;;;;;;;;24.50;22.50;;;;;;;;5060264;28;8810;-58
2023/07/02 05:46:28;;;;;;;;;23.00;20.50;;;;;;;;5055138;28;8885;-59
2023/07/02 05:48:57;;;;;;;;;24.00;23.00;;;;;;;;5067902;28;8984;-58
2023/07/02 05:51:23;;;;;;;;;23.25;21.75;;;;;;;;5068225;28;8805;-57
2023/07/02 05:53:48;;;;;;;;;23.75;21.50;;;;;;;;5057187;28;9992;-59
2023/07/02 05:56:13;;;;;;;;;21.50;21.25;;;;;;;;5066636;28;9857;-58
2023/07/02 05:58:39;;;;;;;;;25.50;23.25;;;;;;;;5063663;28;8821;-59
2023/07/02 06:01:05;;;;;;;;;25.00;23.00;;;;;;;;5055688;28;8846;-59
2023/07/02 06:03:31;;;;;;;;;21.00;19.75;;;;;;;;5055422;28;8813;-61
2023/07/02 06:05:56;;;;;;;;;21.25;18.25;;;;;;;;5057154;28;9671;-58
2023/07/02 06:08:21;;;;;;;;;22.25;20.75;;;;;;;;5062656;28;8782;-59
2023/07/02 06:10:47;;;;;;;;;31.00;25.25;;;;;;;;5058248;28;8840;-58
2023/07/02 06:13:12;;;;;;;;;21.25;20.50;;;;;;;;5065446;28;9645;-57
2023/07/02 06:15:37;;;;;;;;;23.25;20.50;;;;;;;;5067077;28;8900;-58
2023/07/02 06:18:02;;;;;;;;;22.50;18.75;;;;;;;;5056672;28;8815;-57
2023/07/02 06:20:28;;;;;;;;;25.50;21.50;;;;;;;;5060623;28;8868;-58
2023/07/02 06:22:53;;;;;;;;;24.50;20.75;;;;;;;;5063301;28;8826;-58
2023/07/02 06:25:19;;;;;;;;;26.50;22.00;;;;;;;;5066748;28;8866;-58
2023/07/02 06:27:44;;;;;;;;;24.25;23.00;;;;;;;;5062052;28;8828;-58
2023/07/02 06:30:09;;;;;;;;;25.75;22.75;;;;;;;;5064746;28;8943;-58
2023/07/02 06:32:34;;;;;;;;;21.50;20.25;;;;;;;;5061105;28;8844;-58
2023/07/02 06:35:00;;;;;;;;;19.50;19.00;;;;;;;;5061906;28;8814;-59
2023/07/02 06:37:25;;;;;;;;;24.25;20.75;;;;;;;;5060040;28;8848;-58
2023/07/02 06:39:50;;;;;;;;;23.50;22.00;;;;;;;;5069906;28;8911;-57
2023/07/02 06:42:15;;;;;;;;;22.75;22.50;;;;;;;;5065885;28;8814;-58
2023/07/02 06:44:41;;;;;;;;;21.25;20.75;;;;;;;;5067596;28;8818;-58
2023/07/02 06:47:07;;;;;;;;;22.50;21.00;;;;;;;;5063641;28;8944;-58
2023/07/02 06:49:32;;;;;;;;;22.75;20.25;;;;;;;;5063791;28;8835;-58
2023/07/02 06:51:57;;;;;;;;;22.00;20.25;;;;;;;;5065537;28;8822;-59
2023/07/02 06:54:22;;;;;;;;;18.00;18.00;;;;;;;;5064554;28;9607;-57
2023/07/02 06:56:47;;;;;;;;;26.75;24.00;;;;;;;;5067989;28;8814;-57
2023/07/02 06:59:17;;;;;;;;;27.25;25.50;;;;;;;;5065193;28;8848;-58
2023/07/02 07:01:43;;;;;;;;;23.50;22.25;;;;;;;;5054781;28;8778;-58
2023/07/02 07:04:08;;;;;;;;;21.50;20.75;;;;;;;;5060639;28;9654;-57
2023/07/02 07:06:34;;;;;;;;;23.75;21.50;;;;;;;;5063506;28;8925;-59
2023/07/02 07:08:59;;;;;;;;;24.00;23.50;;;;;;;;5067531;28;9536;-58
2023/07/02 07:11:24;;;;;;;;;27.00;24.50;;;;;;;;5062962;28;11531;-59
2023/07/02 07:13:49;;;;;;;;;26.00;22.75;;;;;;;;5066410;28;8851;-58
2023/07/02 07:16:15;;;;;;;;;20.50;20.50;;;;;;;;5066765;28;8818;-57
2023/07/02 07:18:40;;;;;;;;;21.50;20.00;;;;;;;;5059916;28;8924;-58
2023/07/02 07:21:05;;;;;;;;;20.25;19.50;;;;;;;;5059917;28;9622;-57
2023/07/02 07:23:30;;;;;;;;;19.00;18.00;;;;;;;;5060156;28;8836;-58
2023/07/02 07:25:55;;;;;;;;;28.25;24.75;;;;;;;;5067228;28;8814;-59
2023/07/02 07:28:21;;;;;;;;;25.75;25.50;;;;;;;;5064591;28;8832;-60
2023/07/02 07:30:46;;;;;;;;;24.25;23.25;;;;;;;;5063176;28;8858;-58
2023/07/02 07:33:11;;;;;;;;;25.25;21.75;;;;;;;;5049909;28;8805;-59
2023/07/02 07:35:36;;;;;;;;;21.25;20.00;;;;;;;;5059235;28;8845;-58
2023/07/02 07:38:02;;;;;;;;;23.50;22.25;;;;;;;;5064196;28;8848;-58
2023/07/02 07:40:27;;;;;;;;;22.50;21.25;;;;;;;;5067907;28;9579;-58
2023/07/02 07:42:52;;;;;;;;;28.25;23.25;;;;;;;;5054923;28;8804;-58
2023/07/02 07:45:18;;;;;;;;;22.00;20.33;;;;;;;;5064523;28;8786;-57
2023/07/02 07:47:43;;;;;;;;;24.50;22.75;;;;;;;;5068257;28;8794;-57
2023/07/02 07:50:11;;;;;;;;;23.50;21.50;;;;;;;;5067272;28;8822;-57
2023/07/02 07:52:37;;;;;;;;;24.00;21.00;;;;;;;;5067347;28;8798;-58
2023/07/02 07:55:02;;;;;;;;;24.67;21.67;;;;;;;;5063816;28;9872;-58
2023/07/02 07:57:28;;;;;;;;;21.33;20.33;;;;;;;;5049973;28;9626;-57
2023/07/02 07:59:53;;;;;;;;;25.67;23.67;;;;;;;;5050330;28;8871;-57
2023/07/02 08:02:18;;;;;;;;;17.00;15.67;;;;;;;;5066318;28;8826;-58
2023/07/02 08:04:43;;;;;;;;;26.67;24.67;;;;;;;;5060272;28;8861;-59
2023/07/02 08:07:09;;;;;;;;;23.33;21.33;;;;;;;;5063901;28;8813;-59
2023/07/02 08:09:34;;;;;;;;;27.00;22.50;;;;;;;;5068583;28;8935;-58
2023/07/02 08:11:59;;;;;;;;;23.25;22.25;;;;;;;;5062521;28;8814;-58
2023/07/02 08:14:24;;;;;;;;;22.00;21.33;;;;;;;;5067489;28;9031;-59
2023/07/02 08:16:51;;;;;;;;;28.25;23.75;;;;;;;;5063605;28;8822;-59
2023/07/02 08:19:16;;;;;;;;;26.33;23.00;;;;;;;;5059832;28;8817;-59
2023/07/02 08:21:41;;;;;;;;;26.00;22.00;;;;;;;;5053853;28;9552;-59
2023/07/02 08:24:07;;;;;;;;;24.00;24.00;;;;;;;;5066396;28;8858;-58
2023/07/02 08:26:32;;;;;;;;;30.00;25.25;;;;;;;;5067112;28;8923;-58
2023/07/02 08:28:57;;;;;;;;;25.67;23.33;;;;;;;;5065204;28;9505;-58
2023/07/02 08:31:23;;;;;;;;;24.50;21.25;;;;;;;;5068933;28;8936;-58
2023/07/02 08:33:48;;;;;;;;;22.00;20.00;;;;;;;;5064277;28;8863;-58
2023/07/02 08:36:16;;;;;;;;;20.00;20.00;;;;;;;;5068874;28;8818;-58
2023/07/02 08:38:43;;;;;;;;;18.33;17.67;;;;;;;;5067122;28;8810;-58
2023/07/02 08:41:08;;;;;;;;;20.00;19.33;;;;;;;;5067830;28;9541;-57
2023/07/02 08:43:35;;;;;;;;;23.67;21.33;;;;;;;;5063666;28;9690;-58
2023/07/02 08:46:00;;;;;;;;;22.67;21.33;;;;;;;;5063916;28;8805;-59
2023/07/02 08:48:26;;;;;;;;;21.00;20.67;;;;;;;;5061653;28;9544;-59
2023/07/02 08:50:51;;;;;;;;;22.33;22.00;;;;;;;;5061777;28;8845;-61
2023/07/02 08:53:16;;;;;;;;;29.00;26.67;;;;;;;;5059459;28;9629;-57
2023/07/02 08:55:41;;;;;;;;;18.67;17.67;;;;;;;;5061951;28;8838;-58
2023/07/02 08:58:07;;;;;;;;;26.33;21.33;;;;;;;;5069015;28;8850;-58
2023/07/02 09:00:36;;;;;;;;;22.67;22.67;;;;;;;;5064166;28;9528;-58
2023/07/02 09:03:15;;;;;;;;;22.75;22.50;;;;;;;;5066542;28;8814;-57
2023/07/02 09:05:52;;;;;;;;;26.25;23.50;;;;;;;;5061599;28;9562;-58
2023/07/02 09:08:27;;;;;;;;;22.25;20.00;;;;;;;;5070458;28;9585;-57
2023/07/02 09:10:53;;;;;;;;;21.00;20.33;;;;;;;;5064414;28;10626;-58
2023/07/02 09:13:18;;;;;;;;;22.25;20.25;;;;;;;;5054937;28;9523;-60
2023/07/02 09:15:43;;;;;;;;;26.50;23.25;;;;;;;;5058445;28;9723;-58
2023/07/02 09:18:16;;;;;;;;;19.67;18.00;;;;;;;;5059746;28;8886;-58
2023/07/02 09:20:41;;;;;;;;;19.75;19.00;;;;;;;;5056087;28;9198;-58
2023/07/02 09:23:06;;;;;;;;;19.67;17.33;;;;;;;;5071528;28;9818;-57
2023/07/02 09:25:38;;;;;;;;;20.50;19.25;;;;;;;;5072521;28;8825;-57
2023/07/02 09:28:25;;;;;;;;;20.33;19.33;;;;;;;;5072931;28;8786;-58
2023/07/02 09:30:51;;;;;;;;;16.67;16.33;;;;;;;;5062588;28;10149;-59
2023/07/02 09:33:17;;;;;;;;;19.67;19.67;;;;;;;;5068346;28;9359;-59
2023/07/02 09:35:42;;;;;;;;;19.00;17.67;;;;;;;;5064491;28;9312;-59
2023/07/02 09:38:08;;;;;;;;;23.33;19.00;;;;;;;;5067854;28;8806;-57
2023/07/02 09:40:33;;;;;;;;;20.67;19.67;;;;;;;;5060888;28;8818;-58
2023/07/02 09:42:59;;;;;;;;;18.33;17.00;;;;;;;;5072352;28;8834;-58
2023/07/02 09:45:24;;;;;;;;;16.67;16.67;;;;;;;;5072270;28;8967;-58
2023/07/02 09:47:49;;;;;;;;;17.00;16.00;;;;;;;;5071786;28;8826;-57
2023/07/02 09:50:15;;;;;;;;;16.00;14.67;;;;;;;;5070454;28;9646;-57
2023/07/02 09:52:41;;;;;;;;;22.00;20.33;;;;;;;;5060722;28;8863;-57
2023/07/02 09:55:07;;;;;;;;;19.00;17.67;;;;;;;;5064405;28;8845;-57
2023/07/02 09:57:32;;;;;;;;;22.67;21.33;;;;;;;;5070858;28;8822;-58
2023/07/02 10:00:00;;;;;;;;;16.33;16.00;;;;;;;;5070614;28;8825;-58
2023/07/02 10:02:25;;;;;;;;;20.00;18.33;;;;;;;;5071069;28;8817;-59
2023/07/02 10:04:54;;;;;;;;;21.00;19.67;;;;;;;;5056583;28;10075;-58
2023/07/02 10:07:27;;;;;;;;;17.67;15.33;;;;;;;;5069716;28;8820;-59
2023/07/02 10:09:55;;;;;;;;;20.67;20.33;;;;;;;;5067901;28;9362;-60
2023/07/02 10:12:21;;;;;;;;;25.25;22.25;;;;;;;;5064508;28;10342;-57
2023/07/02 10:14:47;;;;;;;;;17.67;16.67;;;;;;;;5071700;28;9557;-59
2023/07/02 10:17:28;;;;;;;;;21.33;20.33;;;;;;;;5060006;28;9254;-58
2023/07/02 10:19:54;;;;;;;;;14.67;14.67;;;;;;;;5067557;28;9228;-58
2023/07/02 10:22:20;;;;;;;;;19.00;18.67;;;;;;;;5055309;28;9245;-57
2023/07/02 10:25:00;;;;;;;;;18.33;16.00;;;;;;;;5058047;28;8812;-57
2023/07/02 10:27:35;;;;;;;;;18.33;18.33;;;;;;;;5071710;28;8797;-57
2023/07/02 10:30:01;;;;;;;;;16.33;15.33;;;;;;;;5056555;28;9191;-58
2023/07/02 10:32:28;;;;;;;;;14.33;14.33;;;;;;;;5066034;28;9142;-58
2023/07/02 10:34:53;;;;;;;;;16.67;15.33;;;;;;;;5070085;28;8782;-58
2023/07/02 10:37:18;;;;;;;;;18.00;16.67;;;;;;;;5071705;28;9026;-58
2023/07/02 10:39:44;;;;;;;;;13.67;13.33;;;;;;;;5065461;28;8809;-56
2023/07/02 10:42:10;;;;;;;;;16.33;16.33;;;;;;;;5052194;28;8890;-56
2023/07/02 10:44:46;;;;;;;;;17.67;16.00;;;;;;;;5054787;28;8789;-57
2023/07/02 10:47:11;;;;;;;;;18.33;18.33;;;;;;;;5061146;28;9581;-57
2023/07/02 10:49:39;;;;;;;;;14.33;14.33;;;;;;;;5062065;28;9474;-58
2023/07/02 10:52:04;;;;;;;;;17.33;16.00;;;;;;;;5065148;28;8804;-57
2023/07/02 10:54:40;;;;;;;;;16.33;15.33;;;;;;;;5065156;28;9289;-59
2023/07/02 10:57:05;;;;;;;;;18.33;16.67;;;;;;;;5068249;28;8844;-57
2023/07/02 10:59:31;;;;;;;;;8.33;7.00;;;;;;;;5060350;28;9897;-57
2023/07/02 11:01:58;;;;;;;;;14.67;14.67;;;;;;;;5053804;28;8818;-58
2023/07/02 11:04:24;;;;;;;;;23.33;22.00;;;;;;;;5063794;28;8836;-56
2023/07/02 11:06:49;;;;;;;;;16.67;16.67;;;;;;;;5061092;28;9523;-56
2023/07/02 11:09:19;;;;;;;;;17.67;16.67;;;;;;;;5058302;28;8920;-58
2023/07/02 11:11:57;;;;;;;;;21.67;19.67;;;;;;;;5057795;28;8836;-58
2023/07/02 11:14:35;;;;;;;;;16.00;16.00;;;;;;;;5063872;28;9498;-57
2023/07/02 11:17:05;;;;;;;;;21.67;19.67;;;;;;;;5057958;28;9315;-56
2023/07/02 11:19:30;;;;;;;;;18.67;17.67;;;;;;;;5064687;28;9441;-57
2023/07/02 11:21:56;;;;;;;;;19.00;17.00;;;;;;;;5070330;28;9532;-57
2023/07/02 11:24:32;;;;;;;;;13.67;13.00;;;;;;;;5054044;28;8831;-57
2023/07/02 11:26:58;;;;;;;;;21.67;20.67;;;;;;;;5062230;28;9558;-58
2023/07/02 11:29:24;;;;;;;;;19.33;18.33;;;;;;;;5066527;28;9350;-58
2023/07/02 11:31:49;;;;;;;;;17.67;16.67;;;;;;;;5062468;28;11687;-58
2023/07/02 11:34:15;;;;;;;;;17.00;15.67;;;;;;;;5064947;28;8790;-57
2023/07/02 11:36:40;;;;;;;;;20.00;18.33;;;;;;;;5060009;28;8828;-58
2023/07/02 11:39:06;;;;;;;;;20.00;18.67;;;;;;;;5070045;28;8813;-57
2023/07/02 11:41:41;;;;;;;;;23.33;21.33;;;;;;;;5069247;28;8801;-58
2023/07/02 11:44:07;;;;;;;;;18.00;16.33;;;;;;;;5061938;28;9447;-57
2023/07/02 11:46:32;;;;;;;;;19.33;19.00;;;;;;;;5049983;28;9235;-58
2023/07/02 11:48:59;;;;;;;;;17.67;16.67;;;;;;;;5064939;28;8818;-57
2023/07/02 11:51:24;;;;;;;;;16.67;16.00;;;;;;;;5066229;28;8912;-58
2023/07/02 11:53:50;;;;;;;;;19.33;17.67;;;;;;;;5061090;28;9150;-58
2023/07/02 11:56:15;;;;;;;;;18.00;17.67;;;;;;;;5063456;28;8810;-58
2023/07/02 11:58:41;;;;;;;;;18.67;17.00;;;;;;;;5048902;28;8878;-59
2023/07/02 12:01:06;;;;;;;;;14.67;14.00;;;;;;;;5049847;28;8816;-59
2023/07/02 12:03:31;;;;;;;;;19.00;18.33;;;;;;;;5049781;28;9532;-59
2023/07/02 12:05:56;;;;;;;;;17.00;16.00;;;;;;;;5052704;28;9520;-59
2023/07/02 12:08:22;;;;;;;;;23.00;20.67;;;;;;;;5068592;28;8820;-59
2023/07/02 12:10:47;;;;;;;;;20.33;17.00;;;;;;;;5054637;28;8820;-58
2023/07/02 12:13:13;;;;;;;;;19.00;18.00;;;;;;;;5070017;28;8802;-58
2023/07/02 12:15:38;;;;;;;;;15.67;15.33;;;;;;;;5054908;28;8839;-59
2023/07/02 12:18:03;;;;;;;;;19.67;18.67;;;;;;;;5049957;28;8815;-58
2023/07/02 12:20:28;;;;;;;;;20.67;18.67;;;;;;;;5048523;28;8844;-58
2023/07/02 12:22:53;;;;;;;;;18.33;16.33;;;;;;;;5049838;28;8829;-57
2023/07/02 12:25:19;;;;;;;;;18.33;17.00;;;;;;;;5049866;28;8816;-58
2023/07/02 12:27:44;;;;;;;;;15.67;13.67;;;;;;;;5056517;28;8852;-57
2023/07/02 12:30:10;;;;;;;;;17.00;16.33;;;;;;;;5063128;28;8864;-59
2023/07/02 12:32:35;;;;;;;;;15.67;14.67;;;;;;;;5051792;28;8972;-59
2023/07/02 12:35:01;;;;;;;;;16.00;13.00;;;;;;;;5069706;28;8889;-58
2023/07/02 12:37:26;;;;;;;;;18.33;17.67;;;;;;;;5067094;28;9437;-60
2023/07/02 12:39:51;;;;;;;;;14.00;13.00;;;;;;;;5049463;28;8922;-58
2023/07/02 12:42:17;;;;;;;;;15.67;13.67;;;;;;;;5055478;28;8862;-58
2023/07/02 12:44:42;;;;;;;;;13.00;13.00;;;;;;;;5056630;28;8821;-59
2023/07/02 12:47:08;;;;;;;;;17.67;16.67;;;;;;;;5069394;28;8814;-59
2023/07/02 12:49:33;;;;;;;;;15.33;13.67;;;;;;;;5069587;28;9581;-59
2023/07/02 12:51:59;;;;;;;;;18.00;17.00;;;;;;;;5068731;28;9117;-59
2023/07/02 12:54:25;;;;;;;;;14.00;14.00;;;;;;;;5068493;28;8833;-60
2023/07/02 12:56:50;;;;;;;;;17.33;17.33;;;;;;;;5061902;28;9580;-57
2023/07/02 12:59:15;;;;;;;;;16.67;15.00;;;;;;;;5065368;28;9510;-59
2023/07/02 13:01:40;;;;;;;;;16.00;15.67;;;;;;;;5068944;28;8806;-58
2023/07/02 13:04:06;;;;;;;;;18.33;16.67;;;;;;;;5069285;28;9298;-58
2023/07/02 13:06:34;;;;;;;;;17.00;17.00;;;;;;;;5060681;28;8838;-58
2023/07/02 13:08:59;;;;;;;;;14.67;14.00;;;;;;;;5066852;28;9630;-58
2023/07/02 13:11:25;;;;;;;;;17.00;16.00;;;;;;;;5056372;28;9193;-59
2023/07/02 13:13:50;;;;;;;;;15.67;15.33;;;;;;;;5062000;28;8927;-59
2023/07/02 13:16:15;;;;;;;;;13.00;12.67;;;;;;;;5055190;28;8913;-58
2023/07/02 13:18:41;;;;;;;;;14.33;14.33;;;;;;;;5060593;28;8866;-58
2023/07/02 13:21:06;;;;;;;;;18.33;17.00;;;;;;;;5045677;28;8835;-59
2023/07/02 13:23:31;;;;;;;;;19.33;17.00;;;;;;;;5054913;28;11095;-59
2023/07/02 13:25:56;;;;;;;;;16.00;16.00;;;;;;;;5066783;28;8938;-59
2023/07/02 13:28:22;;;;;;;;;15.33;14.33;;;;;;;;5067290;28;8816;-58
2023/07/02 13:30:47;;;;;;;;;16.33;16.00;;;;;;;;5068079;28;9614;-59
2023/07/02 13:33:12;;;;;;;;;13.67;12.33;;;;;;;;5060061;28;8883;-58
2023/07/02 13:35:38;;;;;;;;;14.33;13.33;;;;;;;;5062178;28;9133;-59
2023/07/02 13:38:04;;;;;;;;;17.33;16.00;;;;;;;;5069566;28;8871;-58
2023/07/02 13:40:30;;;;;;;;;12.33;12.33;;;;;;;;5065772;28;8805;-58
2023/07/02 13:42:55;;;;;;;;;16.67;14.33;;;;;;;;5068952;28;9215;-58
2023/07/02 13:45:21;;;;;;;;;15.67;15.00;;;;;;;;5067354;28;8960;-58
2023/07/02 13:47:46;;;;;;;;;16.00;14.67;;;;;;;;5071156;28;8826;-58
2023/07/02 13:50:11;;;;;;;;;13.00;12.00;;;;;;;;5070394;28;8837;-58
2023/07/02 13:52:37;;;;;;;;;17.67;16.33;;;;;;;;5066471;28;9049;-57
2023/07/02 13:55:02;;;;;;;;;13.00;13.00;;;;;;;;5068947;28;8931;-61
2023/07/02 13:57:27;;;;;;;;;14.00;13.00;;;;;;;;5068785;28;8899;-57
2023/07/02 13:59:53;;;;;;;;;13.00;12.00;;;;;;;;5068802;28;8846;-59
2023/07/02 14:02:19;;;;;;;;;15.00;13.33;;;;;;;;5058046;28;8865;-58
2023/07/02 14:04:44;;;;;;;;;12.67;11.67;;;;;;;;5055530;28;8782;-59
2023/07/02 14:07:09;;;;;;;;;14.00;12.67;;;;;;;;5056418;28;9296;-58
2023/07/02 14:09:36;;;;;;;;;17.67;13.33;;;;;;;;5063813;28;8978;-59
2023/07/02 14:12:01;;;;;;;;;15.33;14.00;;;;;;;;5059533;28;8810;-59
2023/07/02 14:14:26;;;;;;;;;15.00;14.00;;;;;;;;5066386;28;9483;-59
2023/07/02 14:16:51;;;;;;;;;13.33;11.33;;;;;;;;5064719;28;8821;-58
2023/07/02 14:19:17;;;;;;;;;13.00;13.00;;;;;;;;5063268;28;8892;-59
2023/07/02 14:21:42;;;;;;;;;12.33;11.67;;;;;;;;5068987;28;8860;-58